sensor_id;sensor_type;location;lat;lon;timestamp;pressure;altitude;pressure_sealevel;temperature;humidity
11212;BME280;5663;50.864;12.096;2023-05-03T00:39:59;100445.75;;;10.92;54.34
11212;BME280;5663;50.864;12.096;2023-05-03T00:42:28;100442.34;;;10.90;54.35
11212;BME280;5663;50.864;12.096;2023-05-03T00:44:55;100428.53;;;10.88;54.89
11212;BME280;5663;50.864;12.096;2023-05-03T00:47:24;100404.03;;;10.70;54.67
11212;BME280;5663;50.864;12.096;2023-05-03T00:49:52;100428.03;;;10.78;54.60
11212;BME280;5663;50.864;12.096;2023-05-03T00:52:20;100430.81;;;10.72;54.11
11212;BME280;5663;50.864;12.096;2023-05-03T00:54:48;100430.22;;;10.64;53.88
11212;BME280;5663;50.864;12.096;2023-05-03T00:57:17;100425.13;;;10.61;54.02
11212;BME280;5663;50.864;12.096;2023-05-03T00:59:48;100429.44;;;10.62;53.68
11212;BME280;5663;50.864;12.096;2023-05-03T01:02:17;100425.13;;;10.61;54.28
11212;BME280;5663;50.864;12.096;2023-05-03T01:04:46;100423.25;;;10.66;54.54
11212;BME280;5663;50.864;12.096;2023-05-03T01:07:21;100423.25;;;10.66;54.83
11212;BME280;5663;50.864;12.096;2023-05-03T01:12:47;100423.13;;;10.69;55.12
11212;BME280;5663;50.864;12.096;2023-05-03T01:15:33;100418.03;;;10.66;55.41
11212;BME280;5663;50.864;12.096;2023-05-03T01:18:10;100418.13;;;10.63;54.98
11212;BME280;5663;50.864;12.096;2023-05-03T01:20:42;100413.88;;;10.60;55.27
11212;BME280;5663;50.864;12.096;2023-05-03T01:23:14;100418.22;;;10.60;56.04
11212;BME280;5663;50.864;12.096;2023-05-03T01:25:46;100414.94;;;10.55;56.18
11212;BME280;5663;50.864;12.096;2023-05-03T01:28:16;100420.16;;;10.55;56.33
11212;BME280;5663;50.864;12.096;2023-05-03T01:30:46;100425.53;;;10.49;56.55
11212;BME280;5663;50.864;12.096;2023-05-03T01:33:25;100428.16;;;10.49;56.88
11212;BME280;5663;50.864;12.096;2023-05-03T01:36:05;100423.94;;;10.45;57.00
11212;BME280;5663;50.864;12.096;2023-05-03T01:38:39;100431.00;;;10.41;57.06
11212;BME280;5663;50.864;12.096;2023-05-03T01:41:11;100433.66;;;10.40;57.63
11212;BME280;5663;50.864;12.096;2023-05-03T01:43:39;100439.97;;;10.32;58.02
11212;BME280;5663;50.864;12.096;2023-05-03T01:46:08;100420.44;;;10.19;58.03
11212;BME280;5663;50.864;12.096;2023-05-03T01:48:36;100428.94;;;10.26;58.26
11212;BME280;5663;50.864;12.096;2023-05-03T01:51:05;100423.03;;;10.19;58.35
11212;BME280;5663;50.864;12.096;2023-05-03T01:53:34;100421.34;;;10.18;58.64
11212;BME280;5663;50.864;12.096;2023-05-03T01:56:03;100412.09;;;10.09;58.74
11212;BME280;5663;50.864;12.096;2023-05-03T01:58:32;100421.50;;;10.14;59.10
11212;BME280;5663;50.864;12.096;2023-05-03T02:01:00;100424.22;;;10.09;59.36
11212;BME280;5663;50.864;12.096;2023-05-03T02:03:28;100429.53;;;10.06;59.33
11212;BME280;5663;50.864;12.096;2023-05-03T02:05:56;100426.94;;;10.06;59.68
11212;BME280;5663;50.864;12.096;2023-05-03T02:08:24;100423.50;;;10.04;59.94
11212;BME280;5663;50.864;12.096;2023-05-03T02:10:51;100430.53;;;10.02;59.83
11212;BME280;5663;50.864;12.096;2023-05-03T02:13:19;100424.56;;;9.98;60.02
11212;BME280;5663;50.864;12.096;2023-05-03T02:15:49;100435.91;;;9.96;60.21
11212;BME280;5663;50.864;12.096;2023-05-03T02:18:16;100425.72;;;9.90;60.14
11212;BME280;5663;50.864;12.096;2023-05-03T02:20:47;100413.06;;;9.79;60.56
11212;BME280;5663;50.864;12.096;2023-05-03T02:23:15;100388.31;;;9.67;60.50
11212;BME280;5663;50.864;12.096;2023-05-03T02:25:43;100427.72;;;9.81;60.64
11212;BME280;5663;50.864;12.096;2023-05-03T02:28:11;100434.69;;;9.79;60.76
11212;BME280;5663;50.864;12.096;2023-05-03T02:30:39;100433.00;;;9.77;60.51
11212;BME280;5663;50.864;12.096;2023-05-03T02:33:09;100431.38;;;9.74;60.77
11212;BME280;5663;50.864;12.096;2023-05-03T02:35:37;100429.78;;;9.70;61.01
11212;BME280;5663;50.864;12.096;2023-05-03T02:38:06;100427.31;;;9.66;61.33
11212;BME280;5663;50.864;12.096;2023-05-03T03:39:18;100464.31;;;8.80;63.16
11212;BME280;5663;50.864;12.096;2023-05-03T03:41:46;100469.34;;;8.86;63.04
11212;BME280;5663;50.864;12.096;2023-05-03T03:44:14;100475.31;;;8.88;62.27
11212;BME280;5663;50.864;12.096;2023-05-03T03:46:48;100463.19;;;8.91;62.09
11212;BME280;5663;50.864;12.096;2023-05-03T03:49:15;100461.56;;;8.86;62.16
11212;BME280;5663;50.864;12.096;2023-05-03T03:51:43;100469.16;;;8.93;62.41
11212;BME280;5663;50.864;12.096;2023-05-03T03:54:10;100461.56;;;8.86;61.97
11212;BME280;5663;50.864;12.096;2023-05-03T03:56:39;100474.19;;;8.99;62.19
11212;BME280;5663;50.864;12.096;2023-05-03T03:59:07;100469.91;;;8.98;62.33
11212;BME280;5663;50.864;12.096;2023-05-03T04:01:35;100485.38;;;9.01;62.51
11212;BME280;5663;50.864;12.096;2023-05-03T04:04:03;100487.09;;;9.02;62.08
11212;BME280;5663;50.864;12.096;2023-05-03T04:06:31;100485.31;;;9.04;62.13
11212;BME280;5663;50.864;12.096;2023-05-03T04:08:59;100481.81;;;9.05;62.32
11212;BME280;5663;50.864;12.096;2023-05-03T04:11:29;100482.66;;;9.05;61.87
11212;BME280;5663;50.864;12.096;2023-05-03T04:14:09;100491.34;;;9.04;61.81
11212;BME280;5663;50.864;12.096;2023-05-03T04:16:41;100484.47;;;9.03;61.87
11212;BME280;5663;50.864;12.096;2023-05-03T04:19:08;100491.34;;;9.04;61.46
11212;BME280;5663;50.864;12.096;2023-05-03T04:21:36;100496.53;;;9.04;61.54
11212;BME280;5663;50.864;12.096;2023-05-03T04:24:06;100498.19;;;9.07;61.04
11212;BME280;5663;50.864;12.096;2023-05-03T04:26:35;100506.00;;;9.07;61.38
11212;BME280;5663;50.864;12.096;2023-05-03T04:29:04;100501.66;;;9.07;60.92
11212;BME280;5663;50.864;12.096;2023-05-03T04:31:33;100500.81;;;9.07;60.28
11212;BME280;5663;50.864;12.096;2023-05-03T04:34:00;100508.47;;;9.11;61.05
11212;BME280;5663;50.864;12.096;2023-05-03T04:36:29;100510.06;;;9.16;61.09
11212;BME280;5663;50.864;12.096;2023-05-03T04:38:57;100516.03;;;9.19;61.01
11212;BME280;5663;50.864;12.096;2023-05-03T10:28:23;100478.28;;;18.25;38.41
11212;BME280;5663;50.864;12.096;2023-05-03T10:30:52;100483.03;;;18.59;39.12
11212;BME280;5663;50.864;12.096;2023-05-03T10:33:30;100491.13;;;18.96;37.44
11212;BME280;5663;50.864;12.096;2023-05-03T10:36:04;100485.09;;;18.94;35.34
11212;BME280;5663;50.864;12.096;2023-05-03T10:38:36;100489.84;;;18.89;38.56
11212;BME280;5663;50.864;12.096;2023-05-03T10:41:05;100480.78;;;19.18;39.36
11212;BME280;5663;50.864;12.096;2023-05-03T12:45:05;100430.75;;;20.16;34.06
11212;BME280;5663;50.864;12.096;2023-05-03T12:47:39;100420.34;;;20.26;34.15
11212;BME280;5663;50.864;12.096;2023-05-03T12:50:09;100401.50;;;20.30;34.47
11212;BME280;5663;50.864;12.096;2023-05-03T12:52:40;100419.69;;;20.46;34.47
11212;BME280;5663;50.864;12.096;2023-05-03T12:55:10;100421.69;;;20.66;34.47
11212;BME280;5663;50.864;12.096;2023-05-03T12:57:42;100425.44;;;20.86;33.67
11212;BME280;5663;50.864;12.096;2023-05-03T13:00:17;100421.97;;;20.86;33.60
11212;BME280;5663;50.864;12.096;2023-05-03T13:02:49;100424.88;;;20.83;33.13
11212;BME280;5663;50.864;12.096;2023-05-03T13:05:24;100424.75;;;20.84;34.20
11212;BME280;5663;50.864;12.096;2023-05-03T13:07:53;100424.66;;;21.08;33.76
11212;BME280;5663;50.864;12.096;2023-05-03T13:10:22;100401.91;;;21.17;34.63
11212;BME280;5663;50.864;12.096;2023-05-03T13:12:54;100419.88;;;21.36;33.02
11212;BME280;5663;50.864;12.096;2023-05-03T13:15:26;100412.72;;;21.14;32.28
11212;BME280;5663;50.864;12.096;2023-05-03T13:17:54;100408.75;;;20.86;32.14
11212;BME280;5663;50.864;12.096;2023-05-03T13:20:26;100409.00;;;20.83;32.44
11212;BME280;5663;50.864;12.096;2023-05-03T13:22:55;100402.25;;;20.79;32.25
11212;BME280;5663;50.864;12.096;2023-05-03T13:25:24;100394.78;;;20.61;32.67
11212;BME280;5663;50.864;12.096;2023-05-03T13:27:52;100401.06;;;20.72;32.32
11212;BME280;5663;50.864;12.096;2023-05-03T13:30:24;100394.91;;;20.71;32.01
11212;BME280;5663;50.864;12.096;2023-05-03T13:32:53;100399.72;;;20.77;32.62
11212;BME280;5663;50.864;12.096;2023-05-03T13:35:23;100405.03;;;20.88;33.01
11212;BME280;5663;50.864;12.096;2023-05-03T13:37:52;100399.59;;;20.90;32.56
11212;BME280;5663;50.864;12.096;2023-05-03T13:40:22;100383.03;;;20.88;33.57
11212;BME280;5663;50.864;12.096;2023-05-03T15:44:15;100302.47;;;19.29;34.22
11212;BME280;5663;50.864;12.096;2023-05-03T15:46:44;100324.38;;;19.42;34.30
11212;BME280;5663;50.864;12.096;2023-05-03T15:49:16;100317.41;;;19.41;34.73
11212;BME280;5663;50.864;12.096;2023-05-03T15:51:45;100317.53;;;19.39;34.83
11212;BME280;5663;50.864;12.096;2023-05-03T15:54:12;100312.56;;;19.35;34.93
11212;BME280;5663;50.864;12.096;2023-05-03T15:56:44;100304.81;;;19.20;35.46
11212;BME280;5663;50.864;12.096;2023-05-03T15:59:15;100316.16;;;19.34;35.95
11212;BME280;5663;50.864;12.096;2023-05-03T16:01:46;100315.75;;;19.40;35.08
11212;BME280;5663;50.864;12.096;2023-05-03T16:04:16;100310.25;;;19.43;34.64
11212;BME280;5663;50.864;12.096;2023-05-03T16:06:47;100315.38;;;19.20;34.93
11212;BME280;5663;50.864;12.096;2023-05-03T16:09:17;100316.50;;;18.92;34.80
11212;BME280;5663;50.864;12.096;2023-05-03T16:11:48;100316.72;;;18.77;35.31
11212;BME280;5663;50.864;12.096;2023-05-03T16:14:21;100315.88;;;18.63;35.34
11212;BME280;5663;50.864;12.096;2023-05-03T16:16:52;100311.22;;;18.54;35.60
11212;BME280;5663;50.864;12.096;2023-05-03T16:19:22;100316.72;;;18.51;35.61
11212;BME280;5663;50.864;12.096;2023-05-03T16:21:49;100308.19;;;18.48;36.04
11212;BME280;5663;50.864;12.096;2023-05-03T16:24:17;100302.03;;;18.47;36.25
11212;BME280;5663;50.864;12.096;2023-05-03T16:26:45;100301.53;;;18.42;36.29
11212;BME280;5663;50.864;12.096;2023-05-03T16:29:13;100296.06;;;18.45;35.90
11212;BME280;5663;50.864;12.096;2023-05-03T16:31:43;100289.84;;;18.46;36.24
11212;BME280;5663;50.864;12.096;2023-05-03T16:34:11;100280.44;;;18.42;35.79
11212;BME280;5663;50.864;12.096;2023-05-03T16:36:41;100278.25;;;18.36;35.83
11212;BME280;5663;50.864;12.096;2023-05-03T16:39:10;100268.25;;;18.28;36.40
11212;BME280;5663;50.864;12.096;2023-05-03T16:41:38;100286.38;;;18.33;36.68
11212;BME280;5663;50.864;12.096;2023-05-03T16:44:07;100284.25;;;18.25;36.88
11212;BME280;5663;50.864;12.096;2023-05-03T16:46:36;100283.28;;;18.13;36.63
11212;BME280;5663;50.864;12.096;2023-05-03T16:49:06;100277.91;;;18.02;36.94
11212;BME280;5663;50.864;12.096;2023-05-03T16:51:34;100285.47;;;18.07;36.53
11212;BME280;5663;50.864;12.096;2023-05-03T16:54:05;100286.13;;;18.10;36.50
11212;BME280;5663;50.864;12.096;2023-05-03T16:56:35;100285.72;;;18.16;37.03
11212;BME280;5663;50.864;12.096;2023-05-03T16:59:03;100287.19;;;18.20;36.82
11212;BME280;5663;50.864;12.096;2023-05-03T17:01:31;100283.22;;;18.28;37.28
11212;BME280;5663;50.864;12.096;2023-05-03T17:04:02;100283.72;;;18.20;37.14
11212;BME280;5663;50.864;12.096;2023-05-03T17:06:32;100290.78;;;18.19;36.85
11212;BME280;5663;50.864;12.096;2023-05-03T17:09:04;100285.59;;;18.05;36.94
11212;BME280;5663;50.864;12.096;2023-05-03T17:11:34;100280.00;;;17.97;36.99
11212;BME280;5663;50.864;12.096;2023-05-03T17:14:08;100286.47;;;17.79;37.64
11212;BME280;5663;50.864;12.096;2023-05-03T18:50:23;100321.94;;;13.72;49.10
11212;BME280;5663;50.864;12.096;2023-05-03T18:52:52;100322.69;;;13.57;49.93
11212;BME280;5663;50.864;12.096;2023-05-03T18:55:21;100319.88;;;13.43;50.40
11212;BME280;5663;50.864;12.096;2023-05-03T18:57:51;100291.63;;;13.13;50.67
11212;BME280;5663;50.864;12.096;2023-05-03T19:00:20;100313.28;;;13.15;51.25
11212;BME280;5663;50.864;12.096;2023-05-03T19:02:47;100320.84;;;13.02;51.48
11212;BME280;5663;50.864;12.096;2023-05-03T19:05:15;100300.22;;;12.77;51.73
11212;BME280;5663;50.864;12.096;2023-05-03T19:07:46;100316.03;;;12.74;52.19
11212;BME280;5663;50.864;12.096;2023-05-03T19:10:16;100324.41;;;12.62;52.66
11212;BME280;5663;50.864;12.096;2023-05-03T19:12:50;100324.34;;;12.43;53.10
11212;BME280;5663;50.864;12.096;2023-05-03T19:15:21;100329.13;;;12.33;53.04
11212;BME280;5663;50.864;12.096;2023-05-03T19:17:50;100330.69;;;12.17;53.54
11212;BME280;5663;50.864;12.096;2023-05-03T19:20:20;100298.97;;;11.86;53.76
11212;BME280;5663;50.864;12.096;2023-05-03T19:22:55;100332.66;;;11.90;54.10
11212;BME280;5663;50.864;12.096;2023-05-03T19:25:25;100308.53;;;11.63;54.14
11212;BME280;5663;50.864;12.096;2023-05-03T19:27:56;100325.84;;;11.64;54.25
11212;BME280;5663;50.864;12.096;2023-05-03T19:30:24;100329.75;;;11.54;54.57
11212;BME280;5663;50.864;12.096;2023-05-03T19:32:57;100337.97;;;11.43;54.74
11212;BME280;5663;50.864;12.096;2023-05-03T19:35:26;100273.75;;;10.98;54.56
11212;BME280;5663;50.864;12.096;2023-05-03T19:37:55;100341.13;;;11.29;54.97
11212;BME280;5663;50.864;12.096;2023-05-03T19:40:37;100331.19;;;11.17;55.15
11212;BME280;5663;50.864;12.096;2023-05-03T19:43:07;100311.25;;;10.93;55.65
11212;BME280;5663;50.864;12.096;2023-05-03T19:45:41;100331.97;;;10.96;55.89
11212;BME280;5663;50.864;12.096;2023-05-03T19:48:16;100336.59;;;10.88;55.96
11212;BME280;5663;50.864;12.096;2023-05-03T19:50:48;100314.75;;;10.68;56.18
11212;BME280;5663;50.864;12.096;2023-05-03T19:53:19;100311.59;;;10.60;56.42
11212;BME280;5663;50.864;12.096;2023-05-03T19:55:57;100331.28;;;10.67;56.53
11212;BME280;5663;50.864;12.096;2023-05-03T19:58:31;100278.75;;;10.32;56.50
11212;BME280;5663;50.864;12.096;2023-05-03T20:01:08;100321.41;;;10.52;56.72
11212;BME280;5663;50.864;12.096;2023-05-03T20:03:45;100332.06;;;10.44;56.63
11212;BME280;5663;50.864;12.096;2023-05-03T20:06:16;100330.56;;;10.39;57.00
11212;BME280;5663;50.864;12.096;2023-05-03T20:08:45;100338.44;;;10.35;57.20
11212;BME280;5663;50.864;12.096;2023-05-03T20:11:16;100336.06;;;10.29;57.24
11212;BME280;5663;50.864;12.096;2023-05-03T20:13:48;100335.41;;;10.23;57.40
11212;BME280;5663;50.864;12.096;2023-05-03T20:16:20;100338.16;;;10.18;57.63
11212;BME280;5663;50.864;12.096;2023-05-03T20:18:52;100335.72;;;10.14;57.63
11212;BME280;5663;50.864;12.096;2023-05-03T20:21:25;100333.25;;;10.09;57.70
11212;BME280;5663;50.864;12.096;2023-05-03T20:23:58;100333.56;;;10.00;57.53
11212;BME280;5663;50.864;12.096;2023-05-03T20:26:28;100337.16;;;9.96;57.85
11212;BME280;5663;50.864;12.096;2023-05-03T20:28:57;100315.38;;;9.73;58.05
11212;BME280;5663;50.864;12.096;2023-05-03T20:31:28;100345.34;;;9.83;58.45
11212;BME280;5663;50.864;12.096;2023-05-03T20:33:57;100336.06;;;9.76;58.05
11212;BME280;5663;50.864;12.096;2023-05-03T20:36:27;100336.34;;;9.67;58.71
11212;BME280;5663;50.864;12.096;2023-05-03T20:38:59;100329.66;;;9.60;58.32
11212;BME280;5663;50.864;12.096;2023-05-03T20:41:30;100336.75;;;9.55;58.56
11212;BME280;5663;50.864;12.096;2023-05-03T20:44:07;100326.53;;;9.49;58.63
11212;BME280;5663;50.864;12.096;2023-05-03T20:46:37;100332.84;;;9.40;58.71
11212;BME280;5663;50.864;12.096;2023-05-03T20:49:07;100333.09;;;9.32;58.84
11212;BME280;5663;50.864;12.096;2023-05-03T20:51:38;100323.75;;;9.27;58.98
11212;BME280;5663;50.864;12.096;2023-05-03T20:54:11;100326.53;;;9.21;59.51
11212;BME280;5663;50.864;12.096;2023-05-03T20:56:41;100323.34;;;9.11;59.17
11212;BME280;5663;50.864;12.096;2023-05-03T20:59:11;100327.72;;;9.09;59.90
11212;BME280;5663;50.864;12.096;2023-05-03T21:01:40;100305.63;;;8.96;59.80
11212;BME280;5663;50.864;12.096;2023-05-03T21:04:15;100325.41;;;9.00;59.95
11212;BME280;5663;50.864;12.096;2023-05-03T21:06:46;100324.63;;;8.98;60.00
11212;BME280;5663;50.864;12.096;2023-05-03T21:09:16;100307.78;;;8.81;59.63
11212;BME280;5663;50.864;12.096;2023-05-03T21:11:45;100323.19;;;8.87;60.30
11212;BME280;5663;50.864;12.096;2023-05-03T21:14:13;100311.19;;;8.83;59.87
11212;BME280;5663;50.864;12.096;2023-05-03T21:16:41;100317.41;;;8.78;60.36
11212;BME280;5663;50.864;12.096;2023-05-03T21:19:11;100291.94;;;8.61;60.58
11212;BME280;5663;50.864;12.096;2023-05-03T21:21:40;100317.50;;;8.73;59.96
11212;BME280;5663;50.864;12.096;2023-05-03T21:24:11;100315.91;;;8.69;59.86
11212;BME280;5663;50.864;12.096;2023-05-03T21:26:41;100319.47;;;8.65;60.13
11212;BME280;5663;50.864;12.096;2023-05-03T21:29:11;100323.94;;;8.60;60.17
11212;BME280;5663;50.864;12.096;2023-05-03T21:31:43;100317.22;;;8.53;60.02
11212;BME280;5663;50.864;12.096;2023-05-03T21:34:13;100324.28;;;8.48;60.62
11212;BME280;5663;50.864;12.096;2023-05-03T21:36:42;100320.97;;;8.43;60.86
11212;BME280;5663;50.864;12.096;2023-05-03T21:39:13;100318.50;;;8.36;60.79
11212;BME280;5663;50.864;12.096;2023-05-03T21:41:48;100320.38;;;8.31;60.37
11212;BME280;5663;50.864;12.096;2023-05-03T21:44:52;100324.06;;;8.23;60.78
11212;BME280;5663;50.864;12.096;2023-05-03T21:47:31;100313.06;;;8.13;61.10
11212;BME280;5663;50.864;12.096;2023-05-03T21:50:10;100323.41;;;8.13;61.16
11212;BME280;5663;50.864;12.096;2023-05-03T21:52:43;100317.56;;;8.06;60.96
11212;BME280;5663;50.864;12.096;2023-05-03T21:55:18;100322.75;;;8.05;60.81
11212;BME280;5663;50.864;12.096;2023-05-03T21:57:51;100327.09;;;8.04;61.56
11212;BME280;5663;50.864;12.096;2023-05-03T22:00:23;100323.66;;;8.04;61.14
11212;BME280;5663;50.864;12.096;2023-05-03T22:02:59;100322.88;;;8.00;60.87
11212;BME280;5663;50.864;12.096;2023-05-03T22:05:33;100316.94;;;7.97;61.12
11212;BME280;5663;50.864;12.096;2023-05-03T22:08:13;100311.16;;;7.85;61.52
11212;BME280;5663;50.864;12.096;2023-05-03T22:10:46;100319.03;;;7.82;61.62
11212;BME280;5663;50.864;12.096;2023-05-03T22:13:25;100318.25;;;7.79;61.39
11212;BME280;5663;50.864;12.096;2023-05-03T22:16:13;100317.47;;;7.74;61.79
11212;BME280;5663;50.864;12.096;2023-05-03T22:18:47;100291.22;;;7.53;61.96
11212;BME280;5663;50.864;12.096;2023-05-03T22:21:28;100288.91;;;7.43;61.73
11212;BME280;5663;50.864;12.096;2023-05-03T22:24:02;100321.16;;;7.65;61.83
11212;BME280;5663;50.864;12.096;2023-05-03T22:26:42;100314.34;;;7.61;61.98
11212;BME280;5663;50.864;12.096;2023-05-03T22:29:18;100317.88;;;7.57;62.10
11212;BME280;5663;50.864;12.096;2023-05-03T22:31:56;100317.94;;;7.55;61.56
11212;BME280;5663;50.864;12.096;2023-05-03T22:34:48;100321.50;;;7.50;61.71
11212;BME280;5663;50.864;12.096;2023-05-03T22:37:25;100320.75;;;7.45;61.78
11212;BME280;5663;50.864;12.096;2023-05-03T22:40:06;100315.75;;;7.37;61.58
11212;BME280;5663;50.864;12.096;2023-05-03T22:42:45;100297.97;;;7.22;61.97
11212;BME280;5663;50.864;12.096;2023-05-03T22:45:26;100315.19;;;7.24;62.39
11212;BME280;5663;50.864;12.096;2023-05-03T22:48:02;100310.13;;;7.18;62.41
11212;BME280;5663;50.864;12.096;2023-05-03T22:50:37;100303.25;;;7.17;62.41
11212;BME280;5663;50.864;12.096;2023-05-03T22:53:11;100310.13;;;7.18;62.08
11212;BME280;5663;50.864;12.096;2023-05-03T22:55:39;100314.44;;;7.18;62.46
11212;BME280;5663;50.864;12.096;2023-05-03T22:58:13;100305.06;;;7.15;62.25
11212;BME280;5663;50.864;12.096;2023-05-03T23:00:51;100305.09;;;7.12;62.28
11212;BME280;5663;50.864;12.096;2023-05-03T23:03:28;100294.19;;;6.99;62.56
11212;BME280;5663;50.864;12.096;2023-05-03T23:06:02;100307.06;;;7.01;62.54
11212;BME280;5663;50.864;12.096;2023-05-03T23:08:31;100300.25;;;6.97;62.97
11212;BME280;5663;50.864;12.096;2023-05-03T23:11:01;100288.47;;;6.83;62.68
11212;BME280;5663;50.864;12.096;2023-05-03T23:13:30;100305.56;;;6.90;62.68
11212;BME280;5663;50.864;12.096;2023-05-03T23:16:05;100262.19;;;6.63;62.85
11212;BME280;5663;50.864;12.096;2023-05-03T23:18:35;100307.38;;;6.85;62.65
11212;BME280;5663;50.864;12.096;2023-05-03T23:21:06;100306.56;;;6.83;62.89
11212;BME280;5663;50.864;12.096;2023-05-03T23:23:37;100308.38;;;6.80;62.63
11212;BME280;5663;50.864;12.096;2023-05-03T23:26:07;100273.47;;;6.59;62.95
11212;BME280;5663;50.864;12.096;2023-05-03T23:28:35;100293.91;;;6.71;63.30
11212;BME280;5663;50.864;12.096;2023-05-03T23:31:06;100299.13;;;6.68;63.08
11212;BME280;5663;50.864;12.096;2023-05-03T23:33:36;100295.69;;;6.66;63.03
11212;BME280;5663;50.864;12.096;2023-05-03T23:36:05;100282.06;;;6.59;63.13
11212;BME280;5663;50.864;12.096;2023-05-03T23:38:33;100285.63;;;6.54;63.29
11212;BME280;5663;50.864;12.096;2023-05-03T23:41:02;100291.66;;;6.53;63.30
11212;BME280;5663;50.864;12.096;2023-05-03T23:43:31;100287.44;;;6.49;63.20
11212;BME280;5663;50.864;12.096;2023-05-03T23:46:02;100284.94;;;6.44;63.47
11212;BME280;5663;50.864;12.096;2023-05-03T23:48:33;100291.03;;;6.41;63.66
11212;BME280;5663;50.864;12.096;2023-05-03T23:51:01;100292.75;;;6.41;63.52
11212;BME280;5663;50.864;12.096;2023-05-03T23:53:31;100285.91;;;6.40;63.50
11212;BME280;5663;50.864;12.096;2023-05-03T23:56:00;100285.19;;;6.32;63.47
11212;BME280;5663;50.864;12.096;2023-05-03T23:58:29;100272.47;;;6.21;63.66
